Time;durP1;ratioP1;P1;durP2;ratioP2;P2;SDS_P1;SDS_P2;PMS_P1;PMS_P2;Temp;Humidity;BMP_temperature;BMP_pressure;BME280_temperature;BME280_humidity;BME280_pressure;Samples;Min_cycle;Max_cycle;Signal;HPM_P1;HPM_P2
2023/03/26 00:03:19;;;;;;;41.78;11.65;;;;;;;;;;10521924;28;20043;-72
2023/03/26 00:08:41;;;;;;;42.92;11.23;;;;;;;;;;10524856;28;20027;-72
2023/03/26 00:14:02;;;;;;;25.35;9.98;;;;;;;;;;10531152;28;20044;-72
2023/03/26 00:19:24;;;;;;;33.25;10.32;;;;;;;;;;10555895;28;20048;-72
2023/03/26 00:24:47;;;;;;;31.27;9.10;;;;;;;;;;10531221;28;20036;-72
2023/03/26 00:30:08;;;;;;;36.97;10.10;;;;;;;;;;10511124;28;20032;-72
2023/03/26 00:35:29;;;;;;;30.75;8.68;;;;;;;;;;10528918;28;20032;-72
2023/03/26 00:40:50;;;;;;;49.17;12.32;;;;;;;;;;10531576;28;20670;-71
2023/03/26 00:46:11;;;;;;;45.30;9.80;;;;;;;;;;10526645;28;20032;-72
2023/03/26 00:51:33;;;;;;;41.83;9.68;;;;;;;;;;10552530;28;20500;-72
2023/03/26 00:56:54;;;;;;;33.78;9.40;;;;;;;;;;10493320;28;20045;-72
2023/03/26 01:02:19;;;;;;;40.45;9.13;;;;;;;;;;10502836;28;22041;-72
2023/03/26 01:07:41;;;;;;;41.35;9.23;;;;;;;;;;10490465;28;20520;-72
2023/03/26 01:13:02;;;;;;;47.10;10.68;;;;;;;;;;10488759;28;21042;-72
2023/03/26 01:18:26;;;;;;;39.13;9.68;;;;;;;;;;10495156;28;20040;-72
2023/03/26 01:23:50;;;;;;;31.80;9.13;;;;;;;;;;10488086;28;20024;-72
2023/03/26 01:29:34;;;;;;;32.15;8.65;;;;;;;;;;10484013;28;20045;-72
2023/03/26 01:35:01;;;;;;;37.72;8.30;;;;;;;;;;10509283;28;20039;-72
2023/03/26 01:40:27;;;;;;;30.55;9.27;;;;;;;;;;10485435;28;20375;-72
2023/03/26 01:45:48;;;;;;;32.55;8.35;;;;;;;;;;10481617;28;20040;-72
2023/03/26 01:51:10;;;;;;;28.20;8.23;;;;;;;;;;10501224;28;20489;-72
2023/03/26 01:56:31;;;;;;;25.13;7.38;;;;;;;;;;10502337;28;20032;-72
2023/03/26 02:01:56;;;;;;;33.33;9.32;;;;;;;;;;10513859;28;20032;-69
2023/03/26 02:07:22;;;;;;;38.50;9.45;;;;;;;;;;10509062;28;20040;-69
2023/03/26 02:12:43;;;;;;;27.33;8.40;;;;;;;;;;10534362;28;20044;-69
2023/03/26 02:18:04;;;;;;;27.73;8.30;;;;;;;;;;10531745;28;20062;-70
2023/03/26 02:23:28;;;;;;;33.65;8.73;;;;;;;;;;10533303;28;20035;-70
2023/03/26 02:28:49;;;;;;;31.45;10.32;;;;;;;;;;10508646;28;20051;-73
2023/03/26 02:34:10;;;;;;;40.58;9.18;;;;;;;;;;10520145;28;20043;-71
2023/03/26 02:39:31;;;;;;;27.15;9.13;;;;;;;;;;10520368;28;20616;-72
2023/03/26 02:44:52;;;;;;;31.23;8.82;;;;;;;;;;10517462;28;20024;-71
2023/03/26 02:50:13;;;;;;;27.17;8.50;;;;;;;;;;10537851;28;20039;-72
2023/03/26 02:55:34;;;;;;;17.77;8.18;;;;;;;;;;10524487;28;20048;-72
2023/03/26 03:00:55;;;;;;;31.13;8.52;;;;;;;;;;10521858;28;20082;-71
2023/03/26 03:06:17;;;;;;;27.05;8.75;;;;;;;;;;10509204;28;20032;-72
2023/03/26 03:11:39;;;;;;;32.10;8.68;;;;;;;;;;10524891;28;20374;-72
2023/03/26 03:17:00;;;;;;;30.55;8.43;;;;;;;;;;10516264;28;20464;-72
2023/03/26 03:22:21;;;;;;;31.92;8.48;;;;;;;;;;10523389;28;20032;-71
2023/03/26 03:27:42;;;;;;;33.13;10.07;;;;;;;;;;10517371;28;20056;-72
2023/03/26 03:33:04;;;;;;;31.67;9.35;;;;;;;;;;10519695;28;21302;-72
2023/03/26 03:38:25;;;;;;;25.88;8.00;;;;;;;;;;10528724;28;20035;-72
2023/03/26 03:43:46;;;;;;;21.35;8.32;;;;;;;;;;10513243;28;20405;-73
2023/03/26 03:49:07;;;;;;;24.60;8.20;;;;;;;;;;10538628;28;20036;-72
2023/03/26 03:54:28;;;;;;;35.72;8.98;;;;;;;;;;10537424;28;20036;-72
2023/03/26 03:59:49;;;;;;;31.20;9.38;;;;;;;;;;10501244;28;20477;-72
2023/03/26 04:05:10;;;;;;;23.88;7.63;;;;;;;;;;10510689;28;20025;-73
2023/03/26 04:10:31;;;;;;;20.17;8.07;;;;;;;;;;10486529;28;20040;-73
2023/03/26 04:15:53;;;;;;;28.38;7.90;;;;;;;;;;10477660;28;20059;-73
2023/03/26 04:21:14;;;;;;;40.17;10.85;;;;;;;;;;10477532;28;20485;-73
2023/03/26 04:26:35;;;;;;;33.78;8.60;;;;;;;;;;10476644;28;20047;-73
2023/03/26 04:32:05;;;;;;;26.75;7.95;;;;;;;;;;10494774;28;20036;-73
2023/03/26 04:37:31;;;;;;;31.27;10.00;;;;;;;;;;10476714;28;20040;-72
2023/03/26 04:42:53;;;;;;;20.25;6.85;;;;;;;;;;10459687;28;20025;-72
2023/03/26 04:48:14;;;;;;;24.38;7.32;;;;;;;;;;10495736;28;20115;-72
2023/03/26 04:53:35;;;;;;;20.73;6.78;;;;;;;;;;10483374;28;20544;-72
2023/03/26 04:58:58;;;;;;;18.73;6.43;;;;;;;;;;10524869;28;20047;-72
2023/03/26 05:04:19;;;;;;;18.20;6.82;;;;;;;;;;10544821;28;20039;-72
2023/03/26 05:09:40;;;;;;;33.67;8.73;;;;;;;;;;10522207;28;20701;-72
2023/03/26 05:15:01;;;;;;;23.83;8.60;;;;;;;;;;10520342;28;20023;-72
2023/03/26 05:20:25;;;;;;;21.33;8.00;;;;;;;;;;10511196;28;20036;-72
2023/03/26 05:25:46;;;;;;;24.23;8.43;;;;;;;;;;10525814;28;20044;-73
2023/03/26 05:31:07;;;;;;;28.02;7.85;;;;;;;;;;10520329;28;20102;-73
2023/03/26 05:36:28;;;;;;;25.77;8.18;;;;;;;;;;10524049;28;20047;-72
2023/03/26 05:41:49;;;;;;;26.00;9.02;;;;;;;;;;10522006;28;20062;-73
2023/03/26 05:47:10;;;;;;;16.42;6.93;;;;;;;;;;10545415;28;20023;-73
2023/03/26 05:52:31;;;;;;;19.65;7.72;;;;;;;;;;10557055;28;20035;-72
2023/03/26 05:57:52;;;;;;;24.17;7.40;;;;;;;;;;10542070;28;20109;-71
2023/03/26 06:03:15;;;;;;;19.17;6.70;;;;;;;;;;10539272;28;20044;-73
2023/03/26 06:08:36;;;;;;;24.15;7.45;;;;;;;;;;10533512;28;20039;-73
2023/03/26 06:13:57;;;;;;;19.40;7.82;;;;;;;;;;10541876;28;21726;-71
2023/03/26 06:19:17;;;;;;;25.77;8.10;;;;;;;;;;10509767;28;20040;-73
2023/03/26 06:24:38;;;;;;;40.78;11.15;;;;;;;;;;10514821;28;20028;-73
2023/03/26 06:29:59;;;;;;;29.17;10.35;;;;;;;;;;10516498;28;20028;-71
2023/03/26 06:35:20;;;;;;;27.10;8.77;;;;;;;;;;10517450;28;20058;-73
2023/03/26 06:40:41;;;;;;;21.77;8.10;;;;;;;;;;10504482;28;20051;-71
2023/03/26 06:46:02;;;;;;;17.73;7.63;;;;;;;;;;10521876;28;20024;-71
2023/03/26 06:51:23;;;;;;;22.42;8.98;;;;;;;;;;10538524;28;20040;-71
2023/03/26 06:56:44;;;;;;;18.88;8.32;;;;;;;;;;10485325;28;20429;-71
2023/03/26 07:02:05;;;;;;;24.27;9.02;;;;;;;;;;10494692;28;20114;-71
2023/03/26 07:07:26;;;;;;;34.28;9.95;;;;;;;;;;10487687;28;20052;-71
2023/03/26 07:12:46;;;;;;;34.72;10.13;;;;;;;;;;10470173;28;20511;-70
2023/03/26 07:18:07;;;;;;;25.63;9.35;;;;;;;;;;10468734;28;20047;-72
2023/03/26 07:23:29;;;;;;;19.42;6.95;;;;;;;;;;10488159;28;20028;-71
2023/03/26 07:29:02;;;;;;;26.73;9.30;;;;;;;;;;10469266;28;20506;-72
2023/03/26 07:34:29;;;;;;;23.50;8.82;;;;;;;;;;10467338;28;20401;-71
2023/03/26 07:39:52;;;;;;;27.27;10.32;;;;;;;;;;10480752;28;20367;-68
2023/03/26 07:45:27;;;;;;;17.30;7.93;;;;;;;;;;10482656;28;20048;-68
2023/03/26 07:50:48;;;;;;;33.38;9.82;;;;;;;;;;10495479;28;20044;-68
2023/03/26 07:56:16;;;;;;;16.17;7.88;;;;;;;;;;10498823;28;21156;-69
2023/03/26 08:01:56;;;;;;;30.65;9.32;;;;;;;;;;10513229;28;20043;-69
2023/03/26 08:07:23;;;;;;;20.15;8.38;;;;;;;;;;10515783;28;20039;-69
2023/03/26 08:13:02;;;;;;;21.30;8.68;;;;;;;;;;10516883;28;20436;-69
2023/03/26 08:18:26;;;;;;;28.42;10.90;;;;;;;;;;10516158;28;20484;-69
2023/03/26 08:23:54;;;;;;;23.02;9.43;;;;;;;;;;10526857;27;20062;-69
2023/03/26 08:29:15;;;;;;;22.10;9.35;;;;;;;;;;10520618;28;20039;-69
2023/03/26 08:34:37;;;;;;;20.60;8.45;;;;;;;;;;10532205;27;20028;-69
2023/03/26 08:39:57;;;;;;;19.90;8.38;;;;;;;;;;10519843;28;20047;-69
2023/03/26 08:45:28;;;;;;;25.05;9.65;;;;;;;;;;10515602;28;20405;-69
2023/03/26 08:51:02;;;;;;;24.85;10.15;;;;;;;;;;10520634;28;20520;-69
2023/03/26 08:56:35;;;;;;;21.00;9.68;;;;;;;;;;10522090;28;20052;-69
2023/03/26 09:02:14;;;;;;;13.10;9.07;;;;;;;;;;10520635;28;20511;-69
2023/03/26 09:07:51;;;;;;;16.05;9.05;;;;;;;;;;10522875;28;20032;-69
2023/03/26 09:13:11;;;;;;;21.63;9.65;;;;;;;;;;10531521;28;20044;-69
2023/03/26 09:18:35;;;;;;;16.65;8.75;;;;;;;;;;10511440;28;20552;-69
2023/03/26 09:23:56;;;;;;;19.23;9.38;;;;;;;;;;10538919;28;20024;-68
2023/03/26 09:29:36;;;;;;;23.00;9.27;;;;;;;;;;10525190;28;20492;-69
2023/03/26 09:35:12;;;;;;;21.77;9.70;;;;;;;;;;10522182;28;20035;-69
2023/03/26 09:40:37;;;;;;;19.75;9.50;;;;;;;;;;10498961;28;20032;-69
2023/03/26 09:46:05;;;;;;;22.25;9.10;;;;;;;;;;10502579;28;20028;-70
2023/03/26 09:51:50;;;;;;;27.77;10.15;;;;;;;;;;10501784;28;20036;-71
2023/03/26 09:57:10;;;;;;;22.17;9.02;;;;;;;;;;10500280;28;20059;-71
2023/03/26 10:02:31;;;;;;;11.00;6.22;;;;;;;;;;10513082;28;20024;-71
2023/03/26 10:08:05;;;;;;;11.45;7.05;;;;;;;;;;10508078;28;20466;-71
2023/03/26 10:13:35;;;;;;;23.80;9.63;;;;;;;;;;10515778;28;20040;-71
2023/03/26 10:18:56;;;;;;;16.25;7.68;;;;;;;;;;10520120;28;20066;-70
2023/03/26 10:24:32;;;;;;;20.70;8.70;;;;;;;;;;10514355;28;20056;-72
2023/03/26 10:30:11;;;;;;;24.63;8.60;;;;;;;;;;10519975;28;20039;-72
2023/03/26 10:35:36;;;;;;;14.38;7.35;;;;;;;;;;10524536;28;20028;-72
2023/03/26 10:41:15;;;;;;;15.35;7.18;;;;;;;;;;10536149;28;20426;-73
2023/03/26 10:46:36;;;;;;;15.98;7.43;;;;;;;;;;10535527;28;21866;-72
2023/03/26 10:52:17;;;;;;;8.73;6.13;;;;;;;;;;10536253;28;20032;-72
2023/03/26 10:57:44;;;;;;;12.70;6.60;;;;;;;;;;10528658;28;20055;-73
2023/03/26 11:03:32;;;;;;;11.43;5.75;;;;;;;;;;10516840;28;20405;-72
2023/03/26 11:08:55;;;;;;;27.77;9.68;;;;;;;;;;10519468;28;20082;-72
2023/03/26 11:14:32;;;;;;;8.45;6.13;;;;;;;;;;10511564;28;20465;-72
2023/03/26 11:19:58;;;;;;;11.98;7.30;;;;;;;;;;10527727;28;20043;-72
2023/03/26 11:25:34;;;;;;;12.02;7.00;;;;;;;;;;10542613;28;20040;-72
2023/03/26 11:31:08;;;;;;;10.05;6.65;;;;;;;;;;10524715;28;20044;-72
2023/03/26 11:36:30;;;;;;;10.60;6.68;;;;;;;;;;10525783;28;20432;-72
2023/03/26 11:41:53;;;;;;;15.90;7.45;;;;;;;;;;10528332;28;20032;-72
2023/03/26 11:47:17;;;;;;;13.05;7.07;;;;;;;;;;10537600;28;20041;-72
2023/03/26 11:52:38;;;;;;;13.13;7.47;;;;;;;;;;10536658;28;20047;-72
2023/03/26 11:57:59;;;;;;;15.57;7.65;;;;;;;;;;10512063;28;20044;-72
2023/03/26 12:03:20;;;;;;;16.67;8.07;;;;;;;;;;10496282;28;20032;-72
2023/03/26 12:08:42;;;;;;;18.73;8.77;;;;;;;;;;10491252;28;20036;-72
2023/03/26 12:14:03;;;;;;;16.25;8.30;;;;;;;;;;10492230;28;20036;-72
2023/03/26 12:19:25;;;;;;;15.00;7.30;;;;;;;;;;10485884;28;20032;-73
2023/03/26 12:24:59;;;;;;;13.27;7.05;;;;;;;;;;10512407;27;20477;-73
2023/03/26 12:30:20;;;;;;;14.60;7.22;;;;;;;;;;10499047;28;20033;-72
2023/03/26 12:35:41;;;;;;;18.85;7.20;;;;;;;;;;10499495;28;20493;-73
2023/03/26 12:41:04;;;;;;;9.57;6.22;;;;;;;;;;10491254;28;20040;-73
2023/03/26 12:46:26;;;;;;;10.77;5.30;;;;;;;;;;10490957;28;20036;-73
2023/03/26 12:51:55;;;;;;;10.40;6.07;;;;;;;;;;10496380;28;20032;-81
2023/03/26 12:57:21;;;;;;;15.13;6.85;;;;;;;;;;10510663;28;20055;-82
2023/03/26 13:02:51;;;;;;;13.25;7.40;;;;;;;;;;10485535;28;20132;-78
2023/03/26 13:08:27;;;;;;;14.93;6.67;;;;;;;;;;10483084;28;20045;-78
2023/03/26 13:13:57;;;;;;;9.95;6.13;;;;;;;;;;10497018;28;20035;-76
2023/03/26 13:19:18;;;;;;;13.32;6.50;;;;;;;;;;10487718;28;20036;-81
2023/03/26 13:24:47;;;;;;;13.90;7.15;;;;;;;;;;10495962;28;20035;-78
2023/03/26 13:30:11;;;;;;;13.15;7.60;;;;;;;;;;10477934;28;20044;-79
2023/03/26 13:35:36;;;;;;;18.65;9.00;;;;;;;;;;10483294;28;20040;-78
2023/03/26 13:40:59;;;;;;;15.68;8.75;;;;;;;;;;10461062;28;20032;-82
2023/03/26 13:46:33;;;;;;;14.85;8.85;;;;;;;;;;10488811;28;20095;-77
2023/03/26 13:52:13;;;;;;;24.17;10.60;;;;;;;;;;10486140;28;20036;-82
2023/03/26 13:57:36;;;;;;;26.38;9.65;;;;;;;;;;10517200;28;20051;-76
2023/03/26 14:03:01;;;;;;;26.00;9.45;;;;;;;;;;10512820;28;20530;-76
2023/03/26 14:08:31;;;;;;;23.67;9.85;;;;;;;;;;10527754;28;20040;-76
2023/03/26 14:13:59;;;;;;;26.80;10.18;;;;;;;;;;10524925;28;20040;-73
2023/03/26 14:19:20;;;;;;;24.60;11.32;;;;;;;;;;10508823;28;20032;-80
2023/03/26 14:24:47;;;;;;;32.00;11.68;;;;;;;;;;10515967;28;20032;-78
2023/03/26 14:30:11;;;;;;;24.13;9.98;;;;;;;;;;10513225;28;20027;-79
2023/03/26 14:35:47;;;;;;;21.85;8.50;;;;;;;;;;10516407;28;20032;-79
2023/03/26 14:41:08;;;;;;;22.77;8.43;;;;;;;;;;10521532;28;20045;-77
2023/03/26 14:46:37;;;;;;;24.38;9.25;;;;;;;;;;10525442;28;20029;-75
2023/03/26 14:52:01;;;;;;;22.80;8.50;;;;;;;;;;10508747;28;20048;-76
2023/03/26 14:57:41;;;;;;;16.33;6.85;;;;;;;;;;10476778;28;20088;-75
2023/03/26 15:03:08;;;;;;;21.75;7.50;;;;;;;;;;10482471;28;20032;-76
2023/03/26 15:08:48;;;;;;;20.38;7.78;;;;;;;;;;10464150;28;20040;-76
2023/03/26 15:14:20;;;;;;;31.67;10.43;;;;;;;;;;10481571;28;20040;-75
2023/03/26 15:19:56;;;;;;;26.15;9.07;;;;;;;;;;10470281;28;20048;-75
2023/03/26 15:25:20;;;;;;;26.75;9.57;;;;;;;;;;10471759;28;20037;-76
2023/03/26 15:31:02;;;;;;;18.77;8.23;;;;;;;;;;10463573;28;20043;-75
2023/03/26 15:36:57;;;;;;;27.27;8.60;;;;;;;;;;10478663;28;20442;-76
2023/03/26 15:42:29;;;;;;;34.78;10.30;;;;;;;;;;10478100;28;20044;-76
2023/03/26 15:47:55;;;;;;;22.52;7.95;;;;;;;;;;10460202;28;20029;-76
2023/03/26 15:53:22;;;;;;;23.70;7.57;;;;;;;;;;10477537;28;20040;-76
2023/03/26 15:58:54;;;;;;;20.50;8.00;;;;;;;;;;10475881;28;20045;-76
2023/03/26 16:04:33;;;;;;;22.88;7.88;;;;;;;;;;10475112;28;20032;-78
2023/03/26 16:09:58;;;;;;;19.45;7.60;;;;;;;;;;10468748;28;20044;-77
2023/03/26 16:15:22;;;;;;;17.92;7.57;;;;;;;;;;10477311;28;20975;-82
2023/03/26 16:20:45;;;;;;;33.60;10.70;;;;;;;;;;10482120;28;20036;-74
2023/03/26 16:26:06;;;;;;;20.60;7.70;;;;;;;;;;10479957;28;20444;-74
2023/03/26 16:31:33;;;;;;;23.27;7.65;;;;;;;;;;10476274;28;20036;-74
2023/03/26 16:36:57;;;;;;;29.55;8.93;;;;;;;;;;10479570;28;20146;-74
2023/03/26 16:42:21;;;;;;;21.30;7.53;;;;;;;;;;10458717;28;20057;-74
2023/03/26 16:47:50;;;;;;;16.70;6.22;;;;;;;;;;10483392;28;20032;-74
2023/03/26 16:53:14;;;;;;;23.95;7.60;;;;;;;;;;10465882;28;20036;-74
2023/03/26 16:58:42;;;;;;;21.75;7.60;;;;;;;;;;10492967;28;20115;-73
2023/03/26 17:04:10;;;;;;;22.13;7.00;;;;;;;;;;10473070;28;20047;-74
2023/03/26 17:09:50;;;;;;;16.10;7.25;;;;;;;;;;10484077;28;20040;-74
2023/03/26 17:15:17;;;;;;;12.35;6.05;;;;;;;;;;10465868;28;20039;-74
2023/03/26 17:20:41;;;;;;;27.38;9.15;;;;;;;;;;10476186;28;20031;-74
2023/03/26 17:26:05;;;;;;;21.23;7.55;;;;;;;;;;10466737;28;20406;-74
2023/03/26 17:31:41;;;;;;;21.73;7.75;;;;;;;;;;10492088;28;20041;-74
2023/03/26 17:37:22;;;;;;;21.30;7.78;;;;;;;;;;10481971;28;20035;-75
2023/03/26 17:42:59;;;;;;;27.67;8.45;;;;;;;;;;10471367;28;20036;-74
2023/03/26 17:48:21;;;;;;;31.63;10.95;;;;;;;;;;10477007;28;20028;-74
2023/03/26 17:53:42;;;;;;;18.85;6.45;;;;;;;;;;10478701;28;20032;-73
2023/03/26 17:59:07;;;;;;;28.27;8.93;;;;;;;;;;10524070;28;20051;-72
2023/03/26 18:04:30;;;;;;;27.73;7.80;;;;;;;;;;10532999;28;20032;-73
2023/03/26 18:09:51;;;;;;;19.52;8.25;;;;;;;;;;10510001;28;20024;-73
2023/03/26 18:15:27;;;;;;;18.90;7.35;;;;;;;;;;10526499;28;20047;-73
2023/03/26 18:20:50;;;;;;;15.73;6.95;;;;;;;;;;10529452;28;20036;-74
2023/03/26 18:26:10;;;;;;;16.20;6.88;;;;;;;;;;10519048;28;20032;-74
2023/03/26 18:31:31;;;;;;;16.20;6.63;;;;;;;;;;10518912;28;20050;-74
2023/03/26 18:36:53;;;;;;;18.73;7.70;;;;;;;;;;10508538;28;20099;-74
2023/03/26 18:42:17;;;;;;;12.73;6.25;;;;;;;;;;10520858;28;20044;-74
2023/03/26 18:47:38;;;;;;;12.70;6.40;;;;;;;;;;10504487;28;20473;-74
2023/03/26 18:52:59;;;;;;;20.70;8.27;;;;;;;;;;10519367;28;20020;-74
2023/03/26 18:58:33;;;;;;;15.25;6.60;;;;;;;;;;10513992;28;20051;-74
2023/03/26 19:03:54;;;;;;;25.23;7.15;;;;;;;;;;10533923;28;20517;-74
2023/03/26 19:09:15;;;;;;;30.90;8.20;;;;;;;;;;10507942;28;20043;-74
2023/03/26 19:14:54;;;;;;;23.45;7.35;;;;;;;;;;10507386;28;20032;-74
2023/03/26 19:20:21;;;;;;;20.77;6.80;;;;;;;;;;10530439;28;20028;-74
2023/03/26 19:25:47;;;;;;;22.88;6.97;;;;;;;;;;10548326;28;20039;-74
2023/03/26 19:31:09;;;;;;;13.68;5.90;;;;;;;;;;10536166;28;20040;-74
2023/03/26 19:36:33;;;;;;;18.80;7.55;;;;;;;;;;10530233;28;20032;-74
2023/03/26 19:41:54;;;;;;;22.33;6.72;;;;;;;;;;10545453;28;20032;-74
2023/03/26 19:47:15;;;;;;;11.15;6.50;;;;;;;;;;10529807;28;20047;-74
2023/03/26 19:52:37;;;;;;;20.40;6.78;;;;;;;;;;10513260;28;20484;-74
2023/03/26 19:57:58;;;;;;;17.05;7.03;;;;;;;;;;10528904;28;20041;-74
2023/03/26 20:03:29;;;;;;;11.15;6.45;;;;;;;;;;10514203;28;20026;-74
2023/03/26 20:08:50;;;;;;;;;;;;;;;;;;10537478;28;20039;-74
2023/03/26 20:14:15;;;;;;;14.45;5.95;;;;;;;;;;10532615;28;19912;-74
2023/03/26 20:19:37;;;;;;;16.02;6.93;;;;;;;;;;10542779;28;20028;-74
2023/03/26 20:24:58;;;;;;;12.93;5.63;;;;;;;;;;10532621;28;20501;-74
2023/03/26 20:30:20;;;;;;;18.95;7.65;;;;;;;;;;10527454;28;20028;-74
2023/03/26 20:35:41;;;;;;;16.70;7.07;;;;;;;;;;10522085;28;20040;-74
2023/03/26 20:41:03;;;;;;;17.50;6.82;;;;;;;;;;10537284;27;20504;-74
2023/03/26 20:46:27;;;;;;;25.55;9.15;;;;;;;;;;10525665;28;20032;-74
2023/03/26 20:51:48;;;;;;;28.80;9.50;;;;;;;;;;10526452;28;20043;-73
2023/03/26 20:57:11;;;;;;;18.92;7.18;;;;;;;;;;10500354;28;20520;-74
2023/03/26 21:02:32;;;;;;;16.58;7.25;;;;;;;;;;10479945;28;20114;-74
2023/03/26 21:07:55;;;;;;;22.42;8.30;;;;;;;;;;10496521;28;20546;-74
2023/03/26 21:13:36;;;;;;;19.67;8.77;;;;;;;;;;10470638;28;20036;-74
2023/03/26 21:18:57;;;;;;;18.15;7.70;;;;;;;;;;10472753;28;20036;-73
2023/03/26 21:24:37;;;;;;;13.18;5.95;;;;;;;;;;10477263;28;20029;-75
2023/03/26 21:29:58;;;;;;;30.27;8.75;;;;;;;;;;10456782;28;20032;-73
2023/03/26 21:35:20;;;;;;;13.88;6.38;;;;;;;;;;10481658;28;20043;-73
2023/03/26 21:40:40;;;;;;;14.63;6.40;;;;;;;;;;10495299;28;20035;-73
2023/03/26 21:46:02;;;;;;;22.35;6.57;;;;;;;;;;10488053;28;20020;-74
2023/03/26 21:51:23;;;;;;;13.32;6.40;;;;;;;;;;10481098;28;20036;-73
2023/03/26 21:57:07;;;;;;;20.08;7.00;;;;;;;;;;10541883;28;20055;-73
2023/03/26 22:02:33;;;;;;;18.60;7.22;;;;;;;;;;10518380;28;20541;-74
2023/03/26 22:07:54;;;;;;;25.45;8.00;;;;;;;;;;10520523;28;20047;-74
2023/03/26 22:13:15;;;;;;;17.25;7.75;;;;;;;;;;10523026;27;20414;-73
2023/03/26 22:18:36;;;;;;;19.23;8.48;;;;;;;;;;10534613;27;20028;-74
2023/03/26 22:23:57;;;;;;;21.63;7.43;;;;;;;;;;10519260;28;20039;-73
2023/03/26 22:29:18;;;;;;;14.27;6.75;;;;;;;;;;10511191;28;20032;-74
2023/03/26 22:34:40;;;;;;;29.48;9.98;;;;;;;;;;10486548;28;20398;-73
2023/03/26 22:40:04;;;;;;;13.88;7.28;;;;;;;;;;10500160;28;20028;-73
2023/03/26 22:45:26;;;;;;;16.42;7.53;;;;;;;;;;10525932;28;20047;-73
2023/03/26 22:51:07;;;;;;;11.38;6.60;;;;;;;;;;10511796;28;20051;-73
2023/03/26 22:56:28;;;;;;;12.18;6.78;;;;;;;;;;10512803;28;20436;-73
2023/03/26 23:01:49;;;;;;;11.07;6.03;;;;;;;;;;10472841;28;20032;-73
2023/03/26 23:07:10;;;;;;;15.50;6.72;;;;;;;;;;10473767;28;20420;-73
2023/03/26 23:12:31;;;;;;;9.32;6.90;;;;;;;;;;10476043;28;20029;-73
2023/03/26 23:17:52;;;;;;;18.88;7.35;;;;;;;;;;10473472;28;20035;-74
2023/03/26 23:23:13;;;;;;;14.43;7.00;;;;;;;;;;10473716;28;20670;-74
2023/03/26 23:28:34;;;;;;;20.70;8.32;;;;;;;;;;10486858;28;20029;-73
2023/03/26 23:33:55;;;;;;;11.07;6.93;;;;;;;;;;10486901;28;20036;-73
2023/03/26 23:39:16;;;;;;;16.42;7.15;;;;;;;;;;10478785;28;20043;-73
2023/03/26 23:44:37;;;;;;;19.17;8.02;;;;;;;;;;10485120;28;21718;-73
2023/03/26 23:50:01;;;;;;;17.90;7.65;;;;;;;;;;10482205;28;20028;-74
2023/03/26 23:55:22;;;;;;;17.00;7.55;;;;;;;;;;10494994;28;20681;-73
